Airport View

Enter AWOS ICAO identifier for current METAR.

ex. KFNL

8 Aug 2020 06:23

Frequency: 135.55

Phone: 907-839-2292

Other Area AWOS: PADK

TAF AMD PASY 080345Z 0803/0904 27010G20KT 9999 BKN006 BKN012 QNH2989INS TEMPO 0812/0817 25014KT 4800 BR BECMG 0819/0820 23012KT 4400 BR OVC002 QNH2990INS BECMG 0821/0822 20010KT 6000 BR SCT004 QNH2986INS BECMG 0901/0902 18015KT 9000 BR OVC002 QNH2984INS BECMG 0903/0904 18010KT 6000 BR OVC006 QNH2982INS TX11/0806Z TN06/0821Z